Flight Briefing for CPX952

Departure Arrival
Joint Base McGuire Dix Lakehurst (KWRI)
Click to view FAA NOTAMS
Washington Dulles International Airport (KIAD)
Click to view FAA NOTAMS
Departure Time Arrival Time
N/A N/A
Aircraft Distance
B757-200SF 151nm
Departure METAR Arrival METAR
KWRI 271156Z AUTO 01006KT 10SM CLR 21/13 A2993 RMK AO2 SLP134 T02130127 10213 20185 52015 $ KIAD 271152Z 33007KT 10SM BKN065 BKN140 BKN230 22/17 A2999 RMK AO2 SLP153 T02220172 10228 20206 53020
Suggested Route
MXE


View recent IFR Routes data
Notes
EMPTY | NON-REVENUE REPOSITIONING LEG

Charts and Procedures

Charts for KWRI
No chart available
Charts for KIAD
No chart available

Windy.com Weather Map